首页
METAR-TAF:

METAR-TAF

机场 :

阿勒馬克圖姆國際機場

杜拜, 阿拉伯联合酋长国

纬度: 24-53-49N, 经度: 55-09-40E, 海拔: 35米

当前天气观测

该预报发布于38分钟前的11:00 UTC
风速7节,风向,在南转南东西南之间变化
温度 25°C
湿度 30%
气压 1017 hPa
能见度10公里或以上
1500米以下无云,无积雨云

METAR: OMDW 191100Z 19007KT 160V230 CAVOK 25/06 Q1017 BECMG 29010KT

时间: 15:38 (11:38 UTC)

预报

该预报发布于6小时和41分钟前的04:57 UTC
预报有效从19日的 06点(UTC)到 20日的 12点(UTC)
风速8节,风向南转西南
能见度10公里或以上
1500米以下无云,无积雨云
成为
从 19日的 12点(UTC)到 19日的 14点(UTC)
风速10节,风向北转西北
成为
从 19日的 15点(UTC)到 19日的 17点(UTC)
风速5节,风向东转东南
成为
从 20日的 03点(UTC)到 20日的 05点(UTC)
风速10节,风向
成为
从 20日的 09点(UTC)到 20日的 11点(UTC)
风速16节,风向西

TAF: OMDW 190457Z 1906/2012 20008KT CAVOK BECMG 1912/1914 34010KT BECMG 1915/1917 12005KT BECMG 2003/2005 18010KT BECMG 2009/2011 28016KT

超过4000个机场的气象观测和天气预报(METAR&TAF报告)。

可查询的气象台以黄色和红色小点在地图上表示。

将鼠标移到小点上方,可查看气象台名称。

然后点击查看天气观测和预报。

如需切换地图:点击带黑十字的绿色按钮放大地图;点击带横线的绿色按钮缩小地图;或者点击绿色箭头查看邻近地区的地图。


METAR-TAF: